sensor_id;sensor_type;location;lat;lon;timestamp;temperature;humidity
39503;DHT22;26970;49.900;10.774;2022-07-29T00:00:42;19.60;84.00
39503;DHT22;26970;49.900;10.774;2022-07-29T00:03:10;19.50;84.20
39503;DHT22;26970;49.900;10.774;2022-07-29T00:05:36;19.50;84.20
39503;DHT22;26970;49.900;10.774;2022-07-29T00:08:03;19.50;84.10
39503;DHT22;26970;49.900;10.774;2022-07-29T00:10:28;19.50;84.30
39503;DHT22;26970;49.900;10.774;2022-07-29T00:12:54;19.50;84.30
39503;DHT22;26970;49.900;10.774;2022-07-29T00:15:20;19.50;84.20
39503;DHT22;26970;49.900;10.774;2022-07-29T00:17:45;19.50;84.30
39503;DHT22;26970;49.900;10.774;2022-07-29T00:20:11;19.40;84.30
39503;DHT22;26970;49.900;10.774;2022-07-29T00:22:39;19.40;84.30
39503;DHT22;26970;49.900;10.774;2022-07-29T00:25:06;19.40;84.60
39503;DHT22;26970;49.900;10.774;2022-07-29T00:27:32;19.30;84.70
39503;DHT22;26970;49.900;10.774;2022-07-29T00:29:57;19.40;84.80
39503;DHT22;26970;49.900;10.774;2022-07-29T00:32:23;19.30;85.00
39503;DHT22;26970;49.900;10.774;2022-07-29T00:34:48;19.30;85.10
39503;DHT22;26970;49.900;10.774;2022-07-29T00:37:32;19.30;85.20
39503;DHT22;26970;49.900;10.774;2022-07-29T00:39:58;19.20;85.30
39503;DHT22;26970;49.900;10.774;2022-07-29T00:42:23;19.20;85.60
39503;DHT22;26970;49.900;10.774;2022-07-29T00:44:49;19.10;86.00
39503;DHT22;26970;49.900;10.774;2022-07-29T00:47:15;19.10;85.80
39503;DHT22;26970;49.900;10.774;2022-07-29T00:49:41;19.10;86.00
39503;DHT22;26970;49.900;10.774;2022-07-29T00:52:09;19.00;86.10
39503;DHT22;26970;49.900;10.774;2022-07-29T00:54:35;19.00;86.40
39503;DHT22;26970;49.900;10.774;2022-07-29T00:57:01;19.00;86.30
39503;DHT22;26970;49.900;10.774;2022-07-29T00:59:27;18.90;86.40
39503;DHT22;26970;49.900;10.774;2022-07-29T01:01:54;19.00;86.80
39503;DHT22;26970;49.900;10.774;2022-07-29T01:04:21;18.90;87.10
39503;DHT22;26970;49.900;10.774;2022-07-29T01:06:48;18.90;87.10
39503;DHT22;26970;49.900;10.774;2022-07-29T01:09:14;18.90;87.00
39503;DHT22;26970;49.900;10.774;2022-07-29T01:11:42;18.80;87.00
39503;DHT22;26970;49.900;10.774;2022-07-29T01:14:08;18.80;87.40
39503;DHT22;26970;49.900;10.774;2022-07-29T01:17:26;18.80;87.40
39503;DHT22;26970;49.900;10.774;2022-07-29T01:25:12;18.60;88.00
39503;DHT22;26970;49.900;10.774;2022-07-29T01:27:51;18.60;88.20
39503;DHT22;26970;49.900;10.774;2022-07-29T01:30:27;18.60;88.30
39503;DHT22;26970;49.900;10.774;2022-07-29T01:33:01;18.60;88.40
39503;DHT22;26970;49.900;10.774;2022-07-29T01:35:46;18.70;88.50
39503;DHT22;26970;49.900;10.774;2022-07-29T01:38:21;18.70;88.20
39503;DHT22;26970;49.900;10.774;2022-07-29T01:40:53;18.70;88.40
39503;DHT22;26970;49.900;10.774;2022-07-29T01:43:23;18.70;88.40
39503;DHT22;26970;49.900;10.774;2022-07-29T01:46:09;18.70;88.20
39503;DHT22;26970;49.900;10.774;2022-07-29T01:48:45;18.80;88.20
39503;DHT22;26970;49.900;10.774;2022-07-29T01:51:24;18.80;88.10
39503;DHT22;26970;49.900;10.774;2022-07-29T01:54:42;18.80;88.20
39503;DHT22;26970;49.900;10.774;2022-07-29T01:56:50;18.80;88.30
39503;DHT22;26970;49.900;10.774;2022-07-29T01:59:18;18.80;88.20
39503;DHT22;26970;49.900;10.774;2022-07-29T02:01:45;18.90;88.90
39503;DHT22;26970;49.900;10.774;2022-07-29T02:04:12;18.90;89.20
39503;DHT22;26970;49.900;10.774;2022-07-29T02:06:41;18.80;90.00
39503;DHT22;26970;49.900;10.774;2022-07-29T02:09:09;18.70;90.10
39503;DHT22;26970;49.900;10.774;2022-07-29T02:11:37;18.60;90.20
39503;DHT22;26970;49.900;10.774;2022-07-29T02:14:04;18.70;90.10
39503;DHT22;26970;49.900;10.774;2022-07-29T02:16:31;18.60;90.20
39503;DHT22;26970;49.900;10.774;2022-07-29T02:21:32;18.60;90.50
39503;DHT22;26970;49.900;10.774;2022-07-29T02:24:01;18.70;90.40
39503;DHT22;26970;49.900;10.774;2022-07-29T02:26:37;18.60;90.30
39503;DHT22;26970;49.900;10.774;2022-07-29T02:29:06;18.60;90.40
39503;DHT22;26970;49.900;10.774;2022-07-29T02:31:40;18.50;90.50
39503;DHT22;26970;49.900;10.774;2022-07-29T02:34:09;18.50;90.50
39503;DHT22;26970;49.900;10.774;2022-07-29T02:36:42;18.40;90.60
39503;DHT22;26970;49.900;10.774;2022-07-29T02:39:09;18.30;90.80
39503;DHT22;26970;49.900;10.774;2022-07-29T02:41:52;18.30;90.60
39503;DHT22;26970;49.900;10.774;2022-07-29T02:44:29;18.30;90.60
39503;DHT22;26970;49.900;10.774;2022-07-29T02:50:04;18.30;90.90
39503;DHT22;26970;49.900;10.774;2022-07-29T02:55:33;18.20;90.70
39503;DHT22;26970;49.900;10.774;2022-07-29T03:00:57;18.20;91.00
39503;DHT22;26970;49.900;10.774;2022-07-29T03:03:25;18.20;91.10
39503;DHT22;26970;49.900;10.774;2022-07-29T03:05:55;18.20;90.90
39503;DHT22;26970;49.900;10.774;2022-07-29T03:08:20;18.30;90.70
39503;DHT22;26970;49.900;10.774;2022-07-29T03:10:47;18.30;90.80
39503;DHT22;26970;49.900;10.774;2022-07-29T03:13:14;18.30;90.50
39503;DHT22;26970;49.900;10.774;2022-07-29T03:15:43;18.30;90.30
39503;DHT22;26970;49.900;10.774;2022-07-29T03:18:09;18.50;90.00
39503;DHT22;26970;49.900;10.774;2022-07-29T03:20:35;18.50;90.20
39503;DHT22;26970;49.900;10.774;2022-07-29T03:23:00;18.50;89.80
39503;DHT22;26970;49.900;10.774;2022-07-29T03:25:26;18.50;90.00
39503;DHT22;26970;49.900;10.774;2022-07-29T03:27:52;18.30;90.20
39503;DHT22;26970;49.900;10.774;2022-07-29T03:30:18;18.30;90.30
39503;DHT22;26970;49.900;10.774;2022-07-29T03:32:43;18.30;90.40
39503;DHT22;26970;49.900;10.774;2022-07-29T03:35:09;18.30;90.20
39503;DHT22;26970;49.900;10.774;2022-07-29T03:37:34;18.30;90.30
39503;DHT22;26970;49.900;10.774;2022-07-29T03:40:03;18.30;90.60
39503;DHT22;26970;49.900;10.774;2022-07-29T03:42:36;18.20;90.70
39503;DHT22;26970;49.900;10.774;2022-07-29T03:45:06;18.20;91.00
39503;DHT22;26970;49.900;10.774;2022-07-29T03:47:34;18.00;91.30
39503;DHT22;26970;49.900;10.774;2022-07-29T03:50:05;18.00;91.20
39503;DHT22;26970;49.900;10.774;2022-07-29T03:52:31;18.00;91.40
39503;DHT22;26970;49.900;10.774;2022-07-29T03:54:57;18.00;91.30
39503;DHT22;26970;49.900;10.774;2022-07-29T03:57:25;18.00;91.30
39503;DHT22;26970;49.900;10.774;2022-07-29T03:59:53;18.10;91.00
39503;DHT22;26970;49.900;10.774;2022-07-29T04:02:20;18.10;90.90
39503;DHT22;26970;49.900;10.774;2022-07-29T04:04:46;18.10;90.80
39503;DHT22;26970;49.900;10.774;2022-07-29T04:07:13;18.20;90.60
39503;DHT22;26970;49.900;10.774;2022-07-29T04:09:39;18.30;90.70
39503;DHT22;26970;49.900;10.774;2022-07-29T04:12:05;18.30;90.70
39503;DHT22;26970;49.900;10.774;2022-07-29T04:14:32;18.30;90.60
39503;DHT22;26970;49.900;10.774;2022-07-29T04:16:58;18.30;90.50
39503;DHT22;26970;49.900;10.774;2022-07-29T04:19:23;18.40;90.30
39503;DHT22;26970;49.900;10.774;2022-07-29T04:21:49;18.50;90.60
39503;DHT22;26970;49.900;10.774;2022-07-29T04:24:15;18.30;90.90
39503;DHT22;26970;49.900;10.774;2022-07-29T04:26:42;18.30;91.60
39503;DHT22;26970;49.900;10.774;2022-07-29T04:29:07;18.10;91.70
39503;DHT22;26970;49.900;10.774;2022-07-29T04:31:33;18.10;91.40
39503;DHT22;26970;49.900;10.774;2022-07-29T04:33:58;18.10;91.50
39503;DHT22;26970;49.900;10.774;2022-07-29T04:36:24;18.30;91.60
39503;DHT22;26970;49.900;10.774;2022-07-29T04:38:49;18.30;91.60
39503;DHT22;26970;49.900;10.774;2022-07-29T04:41:15;18.40;91.70
39503;DHT22;26970;49.900;10.774;2022-07-29T04:43:40;18.60;91.20
39503;DHT22;26970;49.900;10.774;2022-07-29T04:46:06;18.80;90.90
39503;DHT22;26970;49.900;10.774;2022-07-29T04:48:32;19.00;90.90
39503;DHT22;26970;49.900;10.774;2022-07-29T04:50:58;19.30;90.50
39503;DHT22;26970;49.900;10.774;2022-07-29T04:53:24;19.50;90.00
39503;DHT22;26970;49.900;10.774;2022-07-29T04:55:50;19.50;89.80
39503;DHT22;26970;49.900;10.774;2022-07-29T04:58:15;19.30;90.20
39503;DHT22;26970;49.900;10.774;2022-07-29T05:00:41;19.30;90.40
39503;DHT22;26970;49.900;10.774;2022-07-29T05:03:06;19.40;90.20
39503;DHT22;26970;49.900;10.774;2022-07-29T05:05:32;19.50;89.00
39503;DHT22;26970;49.900;10.774;2022-07-29T05:07:58;19.50;88.60
39503;DHT22;26970;49.900;10.774;2022-07-29T05:10:23;19.30;89.00
39503;DHT22;26970;49.900;10.774;2022-07-29T05:12:49;19.10;89.60
39503;DHT22;26970;49.900;10.774;2022-07-29T05:15:14;19.00;90.10
39503;DHT22;26970;49.900;10.774;2022-07-29T05:17:40;19.00;90.40
39503;DHT22;26970;49.900;10.774;2022-07-29T05:20:06;18.90;90.60
39503;DHT22;26970;49.900;10.774;2022-07-29T05:22:32;18.90;90.60
39503;DHT22;26970;49.900;10.774;2022-07-29T05:24:58;18.80;90.80
39503;DHT22;26970;49.900;10.774;2022-07-29T05:27:23;18.70;91.00
39503;DHT22;26970;49.900;10.774;2022-07-29T05:29:49;18.70;90.80
39503;DHT22;26970;49.900;10.774;2022-07-29T05:32:14;18.80;90.90
39503;DHT22;26970;49.900;10.774;2022-07-29T05:34:40;18.80;90.60
39503;DHT22;26970;49.900;10.774;2022-07-29T05:37:06;18.80;90.60
39503;DHT22;26970;49.900;10.774;2022-07-29T05:39:32;18.80;90.60
39503;DHT22;26970;49.900;10.774;2022-07-29T05:41:58;18.90;90.70
39503;DHT22;26970;49.900;10.774;2022-07-29T05:44:24;18.90;91.00
39503;DHT22;26970;49.900;10.774;2022-07-29T05:46:49;19.00;90.90
39503;DHT22;26970;49.900;10.774;2022-07-29T05:49:15;19.30;90.80
39503;DHT22;26970;49.900;10.774;2022-07-29T05:51:40;19.70;90.90
39503;DHT22;26970;49.900;10.774;2022-07-29T05:54:06;20.30;90.10
39503;DHT22;26970;49.900;10.774;2022-07-29T05:56:32;20.80;89.10
39503;DHT22;26970;49.900;10.774;2022-07-29T05:58:57;21.20;87.50
39503;DHT22;26970;49.900;10.774;2022-07-29T06:01:23;21.10;86.60
39503;DHT22;26970;49.900;10.774;2022-07-29T06:03:49;21.40;86.80
39503;DHT22;26970;49.900;10.774;2022-07-29T06:06:15;21.50;86.80
39503;DHT22;26970;49.900;10.774;2022-07-29T06:08:40;21.50;86.20
39503;DHT22;26970;49.900;10.774;2022-07-29T06:11:06;21.30;86.70
39503;DHT22;26970;49.900;10.774;2022-07-29T06:13:33;21.20;86.50
39503;DHT22;26970;49.900;10.774;2022-07-29T06:15:59;21.10;87.00
39503;DHT22;26970;49.900;10.774;2022-07-29T06:18:24;21.00;86.50
39503;DHT22;26970;49.900;10.774;2022-07-29T06:20:50;21.00;88.20
39503;DHT22;26970;49.900;10.774;2022-07-29T06:23:17;21.10;88.10
39503;DHT22;26970;49.900;10.774;2022-07-29T06:25:43;21.10;87.00
39503;DHT22;26970;49.900;10.774;2022-07-29T06:28:08;21.30;87.80
39503;DHT22;26970;49.900;10.774;2022-07-29T06:30:34;21.40;87.20
39503;DHT22;26970;49.900;10.774;2022-07-29T06:33:00;21.60;86.60
39503;DHT22;26970;49.900;10.774;2022-07-29T06:35:27;21.90;84.60
39503;DHT22;26970;49.900;10.774;2022-07-29T06:37:53;21.90;85.10
39503;DHT22;26970;49.900;10.774;2022-07-29T06:40:18;21.90;85.60
39503;DHT22;26970;49.900;10.774;2022-07-29T06:43:03;22.00;85.20
39503;DHT22;26970;49.900;10.774;2022-07-29T06:45:28;22.10;86.20
39503;DHT22;26970;49.900;10.774;2022-07-29T06:47:54;22.20;85.90
39503;DHT22;26970;49.900;10.774;2022-07-29T06:50:20;22.30;86.10
39503;DHT22;26970;49.900;10.774;2022-07-29T06:52:47;22.50;85.10
39503;DHT22;26970;49.900;10.774;2022-07-29T06:55:12;22.70;84.00
39503;DHT22;26970;49.900;10.774;2022-07-29T06:57:38;22.90;83.30
39503;DHT22;26970;49.900;10.774;2022-07-29T07:00:04;23.10;83.70
39503;DHT22;26970;49.900;10.774;2022-07-29T07:02:30;23.40;83.10
39503;DHT22;26970;49.900;10.774;2022-07-29T07:04:56;23.70;83.20
39503;DHT22;26970;49.900;10.774;2022-07-29T07:07:21;23.90;82.50
39503;DHT22;26970;49.900;10.774;2022-07-29T07:09:47;24.10;81.30
39503;DHT22;26970;49.900;10.774;2022-07-29T07:12:12;24.20;81.70
39503;DHT22;26970;49.900;10.774;2022-07-29T07:14:38;24.50;80.90
39503;DHT22;26970;49.900;10.774;2022-07-29T07:17:05;24.40;80.80
39503;DHT22;26970;49.900;10.774;2022-07-29T07:19:32;24.40;81.00
39503;DHT22;26970;49.900;10.774;2022-07-29T07:21:57;24.50;80.70
39503;DHT22;26970;49.900;10.774;2022-07-29T07:24:23;24.70;81.10
39503;DHT22;26970;49.900;10.774;2022-07-29T07:26:48;25.00;81.30
39503;DHT22;26970;49.900;10.774;2022-07-29T07:29:14;24.90;80.90
39503;DHT22;26970;49.900;10.774;2022-07-29T07:31:40;24.70;81.50
39503;DHT22;26970;49.900;10.774;2022-07-29T07:34:05;24.80;80.90
39503;DHT22;26970;49.900;10.774;2022-07-29T07:36:31;24.80;81.50
39503;DHT22;26970;49.900;10.774;2022-07-29T07:38:56;25.10;81.70
39503;DHT22;26970;49.900;10.774;2022-07-29T07:41:22;25.20;80.70
39503;DHT22;26970;49.900;10.774;2022-07-29T07:43:48;25.20;80.50
39503;DHT22;26970;49.900;10.774;2022-07-29T07:46:14;25.20;80.60
39503;DHT22;26970;49.900;10.774;2022-07-29T07:48:39;25.30;80.60
39503;DHT22;26970;49.900;10.774;2022-07-29T07:51:05;25.50;80.70
39503;DHT22;26970;49.900;10.774;2022-07-29T07:53:32;25.60;80.10
39503;DHT22;26970;49.900;10.774;2022-07-29T07:55:58;25.60;80.30
39503;DHT22;26970;49.900;10.774;2022-07-29T07:58:23;25.60;80.90
39503;DHT22;26970;49.900;10.774;2022-07-29T08:00:49;25.90;80.80
39503;DHT22;26970;49.900;10.774;2022-07-29T08:03:14;26.00;81.60
39503;DHT22;26970;49.900;10.774;2022-07-29T08:05:40;25.80;81.40
39503;DHT22;26970;49.900;10.774;2022-07-29T08:08:06;25.60;81.10
39503;DHT22;26970;49.900;10.774;2022-07-29T08:10:33;25.70;80.90
39503;DHT22;26970;49.900;10.774;2022-07-29T08:13:18;26.00;81.50
39503;DHT22;26970;49.900;10.774;2022-07-29T08:15:44;26.40;80.60
39503;DHT22;26970;49.900;10.774;2022-07-29T08:18:13;26.60;80.50
39503;DHT22;26970;49.900;10.774;2022-07-29T08:20:39;26.60;80.20
39503;DHT22;26970;49.900;10.774;2022-07-29T08:23:08;26.60;80.00
39503;DHT22;26970;49.900;10.774;2022-07-29T08:25:36;26.80;79.90
39503;DHT22;26970;49.900;10.774;2022-07-29T08:28:03;26.70;79.40
39503;DHT22;26970;49.900;10.774;2022-07-29T08:30:29;26.60;80.20
39503;DHT22;26970;49.900;10.774;2022-07-29T08:32:54;26.50;80.80
39503;DHT22;26970;49.900;10.774;2022-07-29T08:35:24;26.50;81.20
39503;DHT22;26970;49.900;10.774;2022-07-29T08:37:50;26.50;80.70
39503;DHT22;26970;49.900;10.774;2022-07-29T08:40:16;26.70;79.80
39503;DHT22;26970;49.900;10.774;2022-07-29T08:42:41;26.90;79.70
39503;DHT22;26970;49.900;10.774;2022-07-29T08:45:08;27.20;79.50
39503;DHT22;26970;49.900;10.774;2022-07-29T08:47:34;27.40;79.70
39503;DHT22;26970;49.900;10.774;2022-07-29T08:50:04;27.50;78.60
39503;DHT22;26970;49.900;10.774;2022-07-29T08:52:33;27.50;79.50
39503;DHT22;26970;49.900;10.774;2022-07-29T08:55:01;27.50;78.80
39503;DHT22;26970;49.900;10.774;2022-07-29T08:57:27;27.20;79.00
39503;DHT22;26970;49.900;10.774;2022-07-29T08:59:54;27.20;79.60
39503;DHT22;26970;49.900;10.774;2022-07-29T09:02:21;27.20;80.30
39503;DHT22;26970;49.900;10.774;2022-07-29T09:04:48;27.00;80.40
39503;DHT22;26970;49.900;10.774;2022-07-29T09:07:16;26.70;80.80
39503;DHT22;26970;49.900;10.774;2022-07-29T09:09:42;26.40;81.10
39503;DHT22;26970;49.900;10.774;2022-07-29T09:12:09;26.20;82.10
39503;DHT22;26970;49.900;10.774;2022-07-29T09:14:40;26.20;82.20
39503;DHT22;26970;49.900;10.774;2022-07-29T09:17:06;26.30;81.60
39503;DHT22;26970;49.900;10.774;2022-07-29T09:19:35;26.20;82.60
39503;DHT22;26970;49.900;10.774;2022-07-29T09:22:05;26.00;82.70
39503;DHT22;26970;49.900;10.774;2022-07-29T09:27:00;26.80;82.00
39503;DHT22;26970;49.900;10.774;2022-07-29T09:29:26;26.80;81.80
39503;DHT22;26970;49.900;10.774;2022-07-29T09:31:54;26.80;82.40
39503;DHT22;26970;49.900;10.774;2022-07-29T09:34:26;26.80;82.00
39503;DHT22;26970;49.900;10.774;2022-07-29T09:36:53;26.70;82.30
39503;DHT22;26970;49.900;10.774;2022-07-29T09:39:33;27.00;81.90
39503;DHT22;26970;49.900;10.774;2022-07-29T09:42:02;27.10;81.80
39503;DHT22;26970;49.900;10.774;2022-07-29T09:44:48;27.20;81.80
39503;DHT22;26970;49.900;10.774;2022-07-29T09:47:15;27.10;82.00
39503;DHT22;26970;49.900;10.774;2022-07-29T09:49:58;27.20;82.40
39503;DHT22;26970;49.900;10.774;2022-07-29T09:52:25;27.50;81.70
39503;DHT22;26970;49.900;10.774;2022-07-29T09:54:51;27.70;81.80
39503;DHT22;26970;49.900;10.774;2022-07-29T09:57:27;28.00;82.00
39503;DHT22;26970;49.900;10.774;2022-07-29T10:00:03;28.40;81.50
39503;DHT22;26970;49.900;10.774;2022-07-29T10:02:33;28.30;80.30
39503;DHT22;26970;49.900;10.774;2022-07-29T10:05:01;28.00;81.20
39503;DHT22;26970;49.900;10.774;2022-07-29T10:07:46;27.20;82.80
39503;DHT22;26970;49.900;10.774;2022-07-29T10:10:21;27.40;83.10
39503;DHT22;26970;49.900;10.774;2022-07-29T10:12:54;27.70;82.90
39503;DHT22;26970;49.900;10.774;2022-07-29T10:15:22;27.90;81.60
39503;DHT22;26970;49.900;10.774;2022-07-29T10:17:48;27.40;81.80
39503;DHT22;26970;49.900;10.774;2022-07-29T10:20:15;27.00;82.40
39503;DHT22;26970;49.900;10.774;2022-07-29T10:22:41;26.70;83.60
39503;DHT22;26970;49.900;10.774;2022-07-29T10:25:08;26.40;83.80
39503;DHT22;26970;49.900;10.774;2022-07-29T10:27:35;26.40;83.90
39503;DHT22;26970;49.900;10.774;2022-07-29T10:30:00;26.20;84.20
39503;DHT22;26970;49.900;10.774;2022-07-29T10:40:55;25.90;85.30
39503;DHT22;26970;49.900;10.774;2022-07-29T10:43:44;25.80;85.50
39503;DHT22;26970;49.900;10.774;2022-07-29T10:46:11;25.80;85.70
39503;DHT22;26970;49.900;10.774;2022-07-29T10:51:59;25.50;85.90
39503;DHT22;26970;49.900;10.774;2022-07-29T10:57:30;25.50;85.80
39503;DHT22;26970;49.900;10.774;2022-07-29T11:05:15;25.60;85.90
39503;DHT22;26970;49.900;10.774;2022-07-29T11:10:41;25.50;87.90
39503;DHT22;26970;49.900;10.774;2022-07-29T11:13:07;25.20;88.90
39503;DHT22;26970;49.900;10.774;2022-07-29T11:15:55;24.90;89.70
39503;DHT22;26970;49.900;10.774;2022-07-29T11:18:21;24.80;90.00
39503;DHT22;26970;49.900;10.774;2022-07-29T11:20:48;24.70;89.70
39503;DHT22;26970;49.900;10.774;2022-07-29T11:23:30;24.60;90.00
39503;DHT22;26970;49.900;10.774;2022-07-29T11:29:02;24.30;91.20
39503;DHT22;26970;49.900;10.774;2022-07-29T11:45:13;25.40;90.90
39503;DHT22;26970;49.900;10.774;2022-07-29T11:47:51;25.50;90.70
39503;DHT22;26970;49.900;10.774;2022-07-29T11:50:37;25.60;90.80
39503;DHT22;26970;49.900;10.774;2022-07-29T11:53:09;25.90;90.50
39503;DHT22;26970;49.900;10.774;2022-07-29T11:55:40;25.90;90.30
39503;DHT22;26970;49.900;10.774;2022-07-29T11:58:06;25.90;90.50
39503;DHT22;26970;49.900;10.774;2022-07-29T12:00:40;26.10;90.00
39503;DHT22;26970;49.900;10.774;2022-07-29T12:03:08;26.30;90.00
39503;DHT22;26970;49.900;10.774;2022-07-29T12:08:23;26.30;88.10
39503;DHT22;26970;49.900;10.774;2022-07-29T12:10:51;26.40;88.50
39503;DHT22;26970;49.900;10.774;2022-07-29T12:13:19;26.50;89.20
39503;DHT22;26970;49.900;10.774;2022-07-29T12:15:55;26.40;89.50
39503;DHT22;26970;49.900;10.774;2022-07-29T12:18:22;26.40;89.40
39503;DHT22;26970;49.900;10.774;2022-07-29T12:20:48;26.50;90.70
39503;DHT22;26970;49.900;10.774;2022-07-29T12:23:14;26.30;90.40
39503;DHT22;26970;49.900;10.774;2022-07-29T12:25:43;26.70;90.30
39503;DHT22;26970;49.900;10.774;2022-07-29T12:28:13;26.60;89.80
39503;DHT22;26970;49.900;10.774;2022-07-29T12:30:43;26.80;89.90
39503;DHT22;26970;49.900;10.774;2022-07-29T12:33:15;26.70;88.60
39503;DHT22;26970;49.900;10.774;2022-07-29T12:35:44;26.70;88.80
39503;DHT22;26970;49.900;10.774;2022-07-29T12:38:11;26.70;88.30
39503;DHT22;26970;49.900;10.774;2022-07-29T12:40:37;26.40;88.60
39503;DHT22;26970;49.900;10.774;2022-07-29T12:43:17;26.30;88.80
39503;DHT22;26970;49.900;10.774;2022-07-29T12:46:14;26.30;89.20
39503;DHT22;26970;49.900;10.774;2022-07-29T12:48:41;26.40;88.80
39503;DHT22;26970;49.900;10.774;2022-07-29T12:51:08;26.50;89.60
39503;DHT22;26970;49.900;10.774;2022-07-29T12:53:36;26.70;89.20
39503;DHT22;26970;49.900;10.774;2022-07-29T12:56:03;26.70;87.80
39503;DHT22;26970;49.900;10.774;2022-07-29T12:58:34;26.80;88.30
39503;DHT22;26970;49.900;10.774;2022-07-29T13:03:29;27.10;86.70
39503;DHT22;26970;49.900;10.774;2022-07-29T13:06:06;27.00;86.70
39503;DHT22;26970;49.900;10.774;2022-07-29T13:08:31;27.40;87.00
39503;DHT22;26970;49.900;10.774;2022-07-29T13:10:57;27.40;85.80
39503;DHT22;26970;49.900;10.774;2022-07-29T13:13:22;27.40;86.80
39503;DHT22;26970;49.900;10.774;2022-07-29T13:16:05;27.40;86.30
39503;DHT22;26970;49.900;10.774;2022-07-29T13:18:34;27.60;86.60
39503;DHT22;26970;49.900;10.774;2022-07-29T13:21:13;27.70;85.00
39503;DHT22;26970;49.900;10.774;2022-07-29T13:23:39;27.70;84.70
39503;DHT22;26970;49.900;10.774;2022-07-29T13:26:09;27.70;84.60
39503;DHT22;26970;49.900;10.774;2022-07-29T13:28:35;27.60;85.00
39503;DHT22;26970;49.900;10.774;2022-07-29T13:31:01;27.60;85.20
39503;DHT22;26970;49.900;10.774;2022-07-29T13:33:26;27.50;85.20
39503;DHT22;26970;49.900;10.774;2022-07-29T13:35:52;27.30;84.80
39503;DHT22;26970;49.900;10.774;2022-07-29T13:38:17;27.10;85.20
39503;DHT22;26970;49.900;10.774;2022-07-29T13:40:43;27.00;85.20
39503;DHT22;26970;49.900;10.774;2022-07-29T13:43:09;26.90;85.90
39503;DHT22;26970;49.900;10.774;2022-07-29T13:45:35;26.80;85.50
39503;DHT22;26970;49.900;10.774;2022-07-29T13:48:01;26.60;85.60
39503;DHT22;26970;49.900;10.774;2022-07-29T13:50:26;26.70;85.20
39503;DHT22;26970;49.900;10.774;2022-07-29T13:52:52;26.90;85.20
39503;DHT22;26970;49.900;10.774;2022-07-29T13:55:18;27.10;85.80
39503;DHT22;26970;49.900;10.774;2022-07-29T13:57:43;27.20;87.10
39503;DHT22;26970;49.900;10.774;2022-07-29T14:00:09;27.20;86.40
39503;DHT22;26970;49.900;10.774;2022-07-29T14:02:36;27.20;86.00
39503;DHT22;26970;49.900;10.774;2022-07-29T14:05:03;27.20;85.70
39503;DHT22;26970;49.900;10.774;2022-07-29T14:07:28;27.20;85.80
39503;DHT22;26970;49.900;10.774;2022-07-29T14:09:54;27.10;85.40
39503;DHT22;26970;49.900;10.774;2022-07-29T14:12:19;26.80;88.30
39503;DHT22;26970;49.900;10.774;2022-07-29T14:14:45;26.70;88.60
39503;DHT22;26970;49.900;10.774;2022-07-29T14:17:10;26.60;88.60
39503;DHT22;26970;49.900;10.774;2022-07-29T14:19:36;26.50;89.00
39503;DHT22;26970;49.900;10.774;2022-07-29T14:22:04;26.40;88.60
39503;DHT22;26970;49.900;10.774;2022-07-29T14:24:30;26.30;90.00
39503;DHT22;26970;49.900;10.774;2022-07-29T14:26:56;26.50;90.20
39503;DHT22;26970;49.900;10.774;2022-07-29T14:29:22;26.50;90.40
39503;DHT22;26970;49.900;10.774;2022-07-29T14:31:48;26.40;90.00
39503;DHT22;26970;49.900;10.774;2022-07-29T14:34:14;26.50;90.40
39503;DHT22;26970;49.900;10.774;2022-07-29T14:36:40;26.40;90.10
39503;DHT22;26970;49.900;10.774;2022-07-29T14:39:06;26.60;90.00
39503;DHT22;26970;49.900;10.774;2022-07-29T14:41:31;26.60;90.10
39503;DHT22;26970;49.900;10.774;2022-07-29T14:43:58;26.50;90.30
39503;DHT22;26970;49.900;10.774;2022-07-29T14:46:27;26.50;90.10
39503;DHT22;26970;49.900;10.774;2022-07-29T14:48:52;26.50;90.30
39503;DHT22;26970;49.900;10.774;2022-07-29T14:51:18;26.50;90.20
39503;DHT22;26970;49.900;10.774;2022-07-29T14:53:43;26.50;90.00
39503;DHT22;26970;49.900;10.774;2022-07-29T14:56:09;26.40;90.20
39503;DHT22;26970;49.900;10.774;2022-07-29T14:58:35;26.20;90.30
39503;DHT22;26970;49.900;10.774;2022-07-29T15:01:00;26.30;90.50
39503;DHT22;26970;49.900;10.774;2022-07-29T15:03:26;26.00;91.00
39503;DHT22;26970;49.900;10.774;2022-07-29T15:05:53;25.90;91.60
39503;DHT22;26970;49.900;10.774;2022-07-29T15:08:19;25.70;92.00
39503;DHT22;26970;49.900;10.774;2022-07-29T15:10:44;25.50;92.00
39503;DHT22;26970;49.900;10.774;2022-07-29T15:13:10;25.40;92.10
39503;DHT22;26970;49.900;10.774;2022-07-29T15:15:35;25.40;92.10
39503;DHT22;26970;49.900;10.774;2022-07-29T15:18:01;25.10;92.40
39503;DHT22;26970;49.900;10.774;2022-07-29T15:20:27;25.10;92.80
39503;DHT22;26970;49.900;10.774;2022-07-29T15:22:53;24.70;93.40
39503;DHT22;26970;49.900;10.774;2022-07-29T15:25:21;24.40;93.90
39503;DHT22;26970;49.900;10.774;2022-07-29T15:27:46;23.90;94.70
39503;DHT22;26970;49.900;10.774;2022-07-29T15:30:12;23.70;95.20
39503;DHT22;26970;49.900;10.774;2022-07-29T15:32:38;23.60;96.20
39503;DHT22;26970;49.900;10.774;2022-07-29T15:35:03;23.10;98.80
39503;DHT22;26970;49.900;10.774;2022-07-29T15:37:29;22.30;99.90
39503;DHT22;26970;49.900;10.774;2022-07-29T15:39:55;21.50;99.90
39503;DHT22;26970;49.900;10.774;2022-07-29T15:42:21;20.60;99.90
39503;DHT22;26970;49.900;10.774;2022-07-29T15:44:46;20.00;99.90
39503;DHT22;26970;49.900;10.774;2022-07-29T15:47:12;19.80;99.90
39503;DHT22;26970;49.900;10.774;2022-07-29T15:49:39;19.50;99.90
39503;DHT22;26970;49.900;10.774;2022-07-29T15:52:07;19.50;99.90
39503;DHT22;26970;49.900;10.774;2022-07-29T15:54:36;19.40;99.90
39503;DHT22;26970;49.900;10.774;2022-07-29T15:57:03;19.40;99.90
39503;DHT22;26970;49.900;10.774;2022-07-29T15:59:29;19.50;99.90
39503;DHT22;26970;49.900;10.774;2022-07-29T16:01:54;19.20;99.90
39503;DHT22;26970;49.900;10.774;2022-07-29T16:04:21;18.90;99.90
39503;DHT22;26970;49.900;10.774;2022-07-29T16:06:47;18.70;99.90
39503;DHT22;26970;49.900;10.774;2022-07-29T16:09:14;18.50;99.90
39503;DHT22;26970;49.900;10.774;2022-07-29T16:11:40;18.30;99.90
39503;DHT22;26970;49.900;10.774;2022-07-29T16:14:06;18.20;99.90
39503;DHT22;26970;49.900;10.774;2022-07-29T16:16:32;18.30;99.90
39503;DHT22;26970;49.900;10.774;2022-07-29T16:18:57;18.40;99.90
39503;DHT22;26970;49.900;10.774;2022-07-29T16:21:23;18.20;99.90
39503;DHT22;26970;49.900;10.774;2022-07-29T16:23:49;18.30;99.90